sensor_id;sensor_type;location;lat;lon;timestamp;P1;durP1;ratioP1;P2;durP2;ratioP2
66437;SDS011;54537;47.972;11.662;2022-09-13T05:56:43;2.67;;;1.30;;
66437;SDS011;54537;47.972;11.662;2022-09-13T05:59:10;1.58;;;1.00;;
66437;SDS011;54537;47.972;11.662;2022-09-13T06:01:36;3.13;;;1.40;;
66437;SDS011;54537;47.972;11.662;2022-09-13T06:04:03;2.65;;;0.80;;
66437;SDS011;54537;47.972;11.662;2022-09-13T06:06:29;2.05;;;1.10;;
66437;SDS011;54537;47.972;11.662;2022-09-13T06:08:55;2.03;;;1.08;;
66437;SDS011;54537;47.972;11.662;2022-09-13T06:11:22;2.95;;;1.33;;
66437;SDS011;54537;47.972;11.662;2022-09-13T06:13:50;4.10;;;1.40;;
66437;SDS011;54537;47.972;11.662;2022-09-13T06:16:17;3.00;;;1.30;;
66437;SDS011;54537;47.972;11.662;2022-09-13T06:18:43;1.55;;;0.88;;
66437;SDS011;54537;47.972;11.662;2022-09-13T06:21:11;1.77;;;1.10;;
66437;SDS011;54537;47.972;11.662;2022-09-13T06:23:41;2.63;;;1.02;;
66437;SDS011;54537;47.972;11.662;2022-09-13T06:26:08;2.08;;;1.02;;
66437;SDS011;54537;47.972;11.662;2022-09-13T06:28:35;2.33;;;0.90;;
66437;SDS011;54537;47.972;11.662;2022-09-13T06:31:03;1.58;;;1.10;;
66437;SDS011;54537;47.972;11.662;2022-09-13T06:33:30;2.17;;;1.00;;
66437;SDS011;54537;47.972;11.662;2022-09-13T06:35:59;1.48;;;0.90;;
66437;SDS011;54537;47.972;11.662;2022-09-13T06:38:25;2.10;;;0.95;;
66437;SDS011;54537;47.972;11.662;2022-09-13T06:40:57;2.55;;;0.90;;
66437;SDS011;54537;47.972;11.662;2022-09-13T06:43:24;1.30;;;0.90;;
66437;SDS011;54537;47.972;11.662;2022-09-13T06:45:50;4.85;;;0.90;;
66437;SDS011;54537;47.972;11.662;2022-09-13T06:48:19;1.70;;;0.95;;
66437;SDS011;54537;47.972;11.662;2022-09-13T06:50:45;1.25;;;0.70;;
66437;SDS011;54537;47.972;11.662;2022-09-13T06:53:12;1.83;;;0.80;;
66437;SDS011;54537;47.972;11.662;2022-09-13T06:55:38;3.17;;;0.88;;
66437;SDS011;54537;47.972;11.662;2022-09-13T06:58:04;2.88;;;0.75;;
66437;SDS011;54537;47.972;11.662;2022-09-13T07:00:30;1.10;;;1.00;;
66437;SDS011;54537;47.972;11.662;2022-09-13T07:02:57;3.90;;;0.80;;
66437;SDS011;54537;47.972;11.662;2022-09-13T07:05:24;0.88;;;0.68;;
66437;SDS011;54537;47.972;11.662;2022-09-13T07:07:51;2.00;;;0.73;;
66437;SDS011;54537;47.972;11.662;2022-09-13T07:10:17;1.73;;;0.80;;
66437;SDS011;54537;47.972;11.662;2022-09-13T07:12:43;1.58;;;0.73;;
66437;SDS011;54537;47.972;11.662;2022-09-13T07:15:10;2.97;;;0.80;;
66437;SDS011;54537;47.972;11.662;2022-09-13T07:17:36;2.25;;;0.70;;
66437;SDS011;54537;47.972;11.662;2022-09-13T07:20:02;1.13;;;0.73;;
66437;SDS011;54537;47.972;11.662;2022-09-13T07:22:32;1.75;;;0.82;;
66437;SDS011;54537;47.972;11.662;2022-09-13T07:24:58;3.08;;;0.80;;
66437;SDS011;54537;47.972;11.662;2022-09-13T07:27:26;2.78;;;0.80;;
66437;SDS011;54537;47.972;11.662;2022-09-13T07:29:52;2.83;;;0.90;;
66437;SDS011;54537;47.972;11.662;2022-09-13T07:32:18;0.77;;;0.70;;
66437;SDS011;54537;47.972;11.662;2022-09-13T07:34:45;2.40;;;1.00;;
66437;SDS011;54537;47.972;11.662;2022-09-13T07:37:11;1.15;;;0.68;;
66437;SDS011;54537;47.972;11.662;2022-09-13T07:39:38;1.00;;;0.63;;
66437;SDS011;54537;47.972;11.662;2022-09-13T07:42:05;1.30;;;0.82;;
66437;SDS011;54537;47.972;11.662;2022-09-13T07:44:31;2.38;;;0.70;;
66437;SDS011;54537;47.972;11.662;2022-09-13T07:46:57;2.85;;;0.80;;
66437;SDS011;54537;47.972;11.662;2022-09-13T07:49:23;0.77;;;0.73;;
66437;SDS011;54537;47.972;11.662;2022-09-13T07:51:50;2.53;;;0.60;;
66437;SDS011;54537;47.972;11.662;2022-09-13T07:54:17;1.92;;;0.80;;
66437;SDS011;54537;47.972;11.662;2022-09-13T07:56:45;1.33;;;0.80;;
66437;SDS011;54537;47.972;11.662;2022-09-13T07:59:14;2.65;;;0.85;;
66437;SDS011;54537;47.972;11.662;2022-09-13T08:01:41;2.15;;;0.75;;
66437;SDS011;54537;47.972;11.662;2022-09-13T08:04:08;2.15;;;0.80;;
66437;SDS011;54537;47.972;11.662;2022-09-13T08:06:36;0.95;;;0.70;;
66437;SDS011;54537;47.972;11.662;2022-09-13T08:09:03;1.55;;;0.70;;
66437;SDS011;54537;47.972;11.662;2022-09-13T08:11:32;3.20;;;1.00;;
66437;SDS011;54537;47.972;11.662;2022-09-13T08:14:00;1.25;;;0.70;;
66437;SDS011;54537;47.972;11.662;2022-09-13T08:16:27;1.33;;;0.60;;
66437;SDS011;54537;47.972;11.662;2022-09-13T08:18:54;6.65;;;1.17;;
66437;SDS011;54537;47.972;11.662;2022-09-13T08:21:21;3.08;;;0.80;;
66437;SDS011;54537;47.972;11.662;2022-09-13T08:23:47;1.80;;;0.60;;
66437;SDS011;54537;47.972;11.662;2022-09-13T08:26:14;1.73;;;0.60;;
66437;SDS011;54537;47.972;11.662;2022-09-13T08:28:41;2.53;;;0.88;;
66437;SDS011;54537;47.972;11.662;2022-09-13T08:31:10;1.48;;;0.73;;
66437;SDS011;54537;47.972;11.662;2022-09-13T08:33:36;2.70;;;0.90;;
66437;SDS011;54537;47.972;11.662;2022-09-13T08:36:03;1.40;;;0.80;;
66437;SDS011;54537;47.972;11.662;2022-09-13T08:38:29;1.83;;;0.82;;
66437;SDS011;54537;47.972;11.662;2022-09-13T08:40:57;2.00;;;0.77;;
66437;SDS011;54537;47.972;11.662;2022-09-13T08:43:27;1.58;;;0.80;;
66437;SDS011;54537;47.972;11.662;2022-09-13T08:45:58;1.08;;;0.90;;
66437;SDS011;54537;47.972;11.662;2022-09-13T08:48:29;1.45;;;0.70;;
66437;SDS011;54537;47.972;11.662;2022-09-13T09:12:54;1.13;;;0.90;;
66437;SDS011;54537;47.972;11.662;2022-09-13T09:15:22;3.65;;;0.90;;
66437;SDS011;54537;47.972;11.662;2022-09-13T09:17:52;1.38;;;0.85;;
66437;SDS011;54537;47.972;11.662;2022-09-13T09:20:22;2.40;;;0.70;;
66437;SDS011;54537;47.972;11.662;2022-09-13T09:22:49;2.25;;;0.70;;
66437;SDS011;54537;47.972;11.662;2022-09-13T09:57:21;4.88;;;0.98;;
66437;SDS011;54537;47.972;11.662;2022-09-13T10:00:09;1.40;;;0.70;;
66437;SDS011;54537;47.972;11.662;2022-09-13T10:02:35;1.17;;;0.70;;
66437;SDS011;54537;47.972;11.662;2022-09-13T10:05:08;1.50;;;0.90;;
66437;SDS011;54537;47.972;11.662;2022-09-13T10:07:34;0.80;;;0.73;;
66437;SDS011;54537;47.972;11.662;2022-09-13T10:10:01;1.38;;;0.90;;
66437;SDS011;54537;47.972;11.662;2022-09-13T10:12:32;3.80;;;1.35;;
66437;SDS011;54537;47.972;11.662;2022-09-13T10:15:06;3.75;;;0.98;;
66437;SDS011;54537;47.972;11.662;2022-09-13T10:17:37;2.42;;;0.80;;
66437;SDS011;54537;47.972;11.662;2022-09-13T10:20:18;2.33;;;1.30;;
66437;SDS011;54537;47.972;11.662;2022-09-13T10:22:45;5.07;;;1.10;;
66437;SDS011;54537;47.972;11.662;2022-09-13T10:25:31;3.50;;;1.20;;
66437;SDS011;54537;47.972;11.662;2022-09-13T10:28:02;2.37;;;0.90;;
66437;SDS011;54537;47.972;11.662;2022-09-13T10:30:30;2.88;;;1.38;;
66437;SDS011;54537;47.972;11.662;2022-09-13T10:32:58;1.70;;;0.90;;
66437;SDS011;54537;47.972;11.662;2022-09-13T10:35:25;2.95;;;1.10;;
66437;SDS011;54537;47.972;11.662;2022-09-13T10:37:52;2.13;;;0.80;;
66437;SDS011;54537;47.972;11.662;2022-09-13T10:40:21;1.98;;;0.98;;
66437;SDS011;54537;47.972;11.662;2022-09-13T10:42:51;3.72;;;1.80;;
66437;SDS011;54537;47.972;11.662;2022-09-13T10:45:20;1.80;;;0.88;;
66437;SDS011;54537;47.972;11.662;2022-09-13T10:47:48;3.70;;;1.10;;
66437;SDS011;54537;47.972;11.662;2022-09-13T10:50:19;2.57;;;1.10;;
66437;SDS011;54537;47.972;11.662;2022-09-13T10:52:46;2.75;;;0.80;;
66437;SDS011;54537;47.972;11.662;2022-09-13T10:55:26;1.83;;;0.80;;
66437;SDS011;54537;47.972;11.662;2022-09-13T10:57:53;1.50;;;0.80;;
66437;SDS011;54537;47.972;11.662;2022-09-13T11:00:22;2.40;;;0.95;;
66437;SDS011;54537;47.972;11.662;2022-09-13T11:05:35;2.73;;;1.10;;
66437;SDS011;54537;47.972;11.662;2022-09-13T11:08:08;3.03;;;1.00;;
66437;SDS011;54537;47.972;11.662;2022-09-13T11:10:38;1.70;;;0.80;;
66437;SDS011;54537;47.972;11.662;2022-09-13T11:13:12;2.40;;;0.95;;
66437;SDS011;54537;47.972;11.662;2022-09-13T11:15:44;2.20;;;0.80;;
66437;SDS011;54537;47.972;11.662;2022-09-13T11:18:22;1.45;;;0.90;;
66437;SDS011;54537;47.972;11.662;2022-09-13T11:20:54;2.20;;;0.90;;
66437;SDS011;54537;47.972;11.662;2022-09-13T11:26:09;1.15;;;0.80;;
66437;SDS011;54537;47.972;11.662;2022-09-13T11:28:40;2.42;;;0.90;;
66437;SDS011;54537;47.972;11.662;2022-09-13T11:31:16;2.20;;;0.85;;
66437;SDS011;54537;47.972;11.662;2022-09-13T11:33:49;1.58;;;0.70;;
66437;SDS011;54537;47.972;11.662;2022-09-13T11:36:27;2.05;;;0.80;;
66437;SDS011;54537;47.972;11.662;2022-09-13T11:39:01;2.50;;;0.70;;
66437;SDS011;54537;47.972;11.662;2022-09-13T11:41:33;2.10;;;0.80;;
66437;SDS011;54537;47.972;11.662;2022-09-13T11:44:06;2.28;;;0.80;;
66437;SDS011;54537;47.972;11.662;2022-09-13T11:46:36;1.25;;;0.60;;
66437;SDS011;54537;47.972;11.662;2022-09-13T11:51:53;1.85;;;0.70;;
66437;SDS011;54537;47.972;11.662;2022-09-13T11:54:22;1.53;;;0.73;;
66437;SDS011;54537;47.972;11.662;2022-09-13T11:56:53;0.90;;;0.60;;
66437;SDS011;54537;47.972;11.662;2022-09-13T11:59:23;2.30;;;0.80;;
66437;SDS011;54537;47.972;11.662;2022-09-13T12:01:58;1.15;;;0.60;;
66437;SDS011;54537;47.972;11.662;2022-09-13T12:04:28;1.33;;;0.70;;
66437;SDS011;54537;47.972;11.662;2022-09-13T12:06:58;1.23;;;0.70;;
66437;SDS011;54537;47.972;11.662;2022-09-13T12:09:27;0.93;;;0.70;;
66437;SDS011;54537;47.972;11.662;2022-09-13T12:11:56;1.90;;;0.60;;
66437;SDS011;54537;47.972;11.662;2022-09-13T12:14:24;2.15;;;0.60;;
66437;SDS011;54537;47.972;11.662;2022-09-13T12:16:52;1.20;;;0.70;;
66437;SDS011;54537;47.972;11.662;2022-09-13T12:19:21;1.00;;;0.60;;
66437;SDS011;54537;47.972;11.662;2022-09-13T12:21:48;0.80;;;0.50;;
66437;SDS011;54537;47.972;11.662;2022-09-13T12:24:17;1.02;;;0.60;;
66437;SDS011;54537;47.972;11.662;2022-09-13T12:26:46;2.10;;;0.60;;
66437;SDS011;54537;47.972;11.662;2022-09-13T12:29:13;2.45;;;0.77;;
66437;SDS011;54537;47.972;11.662;2022-09-13T12:31:41;1.27;;;0.70;;
66437;SDS011;54537;47.972;11.662;2022-09-13T12:34:08;3.13;;;0.80;;
66437;SDS011;54537;47.972;11.662;2022-09-13T12:42:28;0.80;;;0.60;;
66437;SDS011;54537;47.972;11.662;2022-09-13T12:45:05;1.02;;;0.50;;
66437;SDS011;54537;47.972;11.662;2022-09-13T12:47:39;1.95;;;0.80;;
66437;SDS011;54537;47.972;11.662;2022-09-13T12:50:18;1.87;;;0.80;;
66437;SDS011;54537;47.972;11.662;2022-09-13T12:52:50;2.13;;;0.70;;
66437;SDS011;54537;47.972;11.662;2022-09-13T12:58:25;1.65;;;0.60;;
66437;SDS011;54537;47.972;11.662;2022-09-13T13:01:01;1.67;;;0.80;;
66437;SDS011;54537;47.972;11.662;2022-09-13T13:03:29;0.70;;;0.60;;
66437;SDS011;54537;47.972;11.662;2022-09-13T13:06:05;0.73;;;0.60;;
66437;SDS011;54537;47.972;11.662;2022-09-13T13:08:33;1.10;;;0.70;;
66437;SDS011;54537;47.972;11.662;2022-09-13T13:11:00;1.15;;;0.70;;
66437;SDS011;54537;47.972;11.662;2022-09-13T13:13:31;1.20;;;0.70;;
66437;SDS011;54537;47.972;11.662;2022-09-13T13:16:00;2.13;;;0.88;;
66437;SDS011;54537;47.972;11.662;2022-09-13T13:18:27;3.50;;;0.80;;
66437;SDS011;54537;47.972;11.662;2022-09-13T13:21:06;1.88;;;0.90;;
66437;SDS011;54537;47.972;11.662;2022-09-13T13:23:46;2.22;;;0.80;;
66437;SDS011;54537;47.972;11.662;2022-09-13T13:26:41;1.27;;;0.70;;
66437;SDS011;54537;47.972;11.662;2022-09-13T13:29:15;1.38;;;0.75;;
66437;SDS011;54537;47.972;11.662;2022-09-13T13:31:42;2.20;;;0.73;;
66437;SDS011;54537;47.972;11.662;2022-09-13T13:34:33;3.78;;;0.80;;
66437;SDS011;54537;47.972;11.662;2022-09-13T13:37:01;1.08;;;0.80;;
66437;SDS011;54537;47.972;11.662;2022-09-13T13:39:32;1.30;;;0.73;;
66437;SDS011;54537;47.972;11.662;2022-09-13T13:41:59;4.70;;;1.00;;
66437;SDS011;54537;47.972;11.662;2022-09-13T13:50:07;2.40;;;0.80;;
66437;SDS011;54537;47.972;11.662;2022-09-13T13:52:38;4.35;;;0.90;;
66437;SDS011;54537;47.972;11.662;2022-09-13T13:57:49;2.25;;;0.80;;
66437;SDS011;54537;47.972;11.662;2022-09-13T14:00:27;1.33;;;0.70;;
66437;SDS011;54537;47.972;11.662;2022-09-13T14:02:56;1.83;;;0.70;;
66437;SDS011;54537;47.972;11.662;2022-09-13T14:05:29;2.30;;;0.80;;
66437;SDS011;54537;47.972;11.662;2022-09-13T14:08:14;3.35;;;0.80;;
66437;SDS011;54537;47.972;11.662;2022-09-13T14:10:47;3.97;;;0.90;;
66437;SDS011;54537;47.972;11.662;2022-09-13T14:13:32;1.75;;;0.80;;
66437;SDS011;54537;47.972;11.662;2022-09-13T14:16:04;0.88;;;0.70;;
66437;SDS011;54537;47.972;11.662;2022-09-13T14:18:49;1.70;;;0.80;;
66437;SDS011;54537;47.972;11.662;2022-09-13T14:21:21;1.83;;;0.73;;
66437;SDS011;54537;47.972;11.662;2022-09-13T14:23:47;2.83;;;0.90;;
66437;SDS011;54537;47.972;11.662;2022-09-13T14:26:14;5.35;;;1.73;;
66437;SDS011;54537;47.972;11.662;2022-09-13T14:28:40;11.25;;;2.90;;
66437;SDS011;54537;47.972;11.662;2022-09-13T14:31:07;2.60;;;1.00;;
66437;SDS011;54537;47.972;11.662;2022-09-13T14:33:34;1.92;;;0.70;;
66437;SDS011;54537;47.972;11.662;2022-09-13T14:36:03;1.17;;;0.70;;
66437;SDS011;54537;47.972;11.662;2022-09-13T14:38:31;2.45;;;0.73;;
66437;SDS011;54537;47.972;11.662;2022-09-13T14:41:01;2.05;;;0.70;;
66437;SDS011;54537;47.972;11.662;2022-09-13T14:43:28;2.03;;;1.20;;
66437;SDS011;54537;47.972;11.662;2022-09-13T14:45:56;2.28;;;1.25;;
66437;SDS011;54537;47.972;11.662;2022-09-13T14:48:26;6.30;;;4.47;;
66437;SDS011;54537;47.972;11.662;2022-09-13T14:50:55;4.53;;;2.47;;
66437;SDS011;54537;47.972;11.662;2022-09-13T14:53:23;2.95;;;1.30;;
66437;SDS011;54537;47.972;11.662;2022-09-13T14:55:52;2.75;;;0.80;;
66437;SDS011;54537;47.972;11.662;2022-09-13T14:58:21;1.67;;;0.70;;
66437;SDS011;54537;47.972;11.662;2022-09-13T15:00:50;4.03;;;0.70;;
66437;SDS011;54537;47.972;11.662;2022-09-13T15:03:17;1.25;;;0.70;;
66437;SDS011;54537;47.972;11.662;2022-09-13T15:05:49;1.95;;;0.60;;
66437;SDS011;54537;47.972;11.662;2022-09-13T15:11:04;1.95;;;0.93;;
66437;SDS011;54537;47.972;11.662;2022-09-13T15:13:30;2.97;;;1.23;;
66437;SDS011;54537;47.972;11.662;2022-09-13T15:15:57;1.40;;;0.65;;
66437;SDS011;54537;47.972;11.662;2022-09-13T15:18:24;4.32;;;0.80;;
66437;SDS011;54537;47.972;11.662;2022-09-13T15:20:51;1.05;;;0.80;;
66437;SDS011;54537;47.972;11.662;2022-09-13T15:23:20;3.28;;;0.80;;
66437;SDS011;54537;47.972;11.662;2022-09-13T15:25:49;1.20;;;0.80;;
66437;SDS011;54537;47.972;11.662;2022-09-13T15:28:20;0.88;;;0.60;;
66437;SDS011;54537;47.972;11.662;2022-09-13T15:30:47;3.42;;;0.70;;
66437;SDS011;54537;47.972;11.662;2022-09-13T15:33:25;0.77;;;0.60;;
66437;SDS011;54537;47.972;11.662;2022-09-13T15:35:51;2.25;;;0.90;;
66437;SDS011;54537;47.972;11.662;2022-09-13T15:38:22;1.73;;;0.88;;
66437;SDS011;54537;47.972;11.662;2022-09-13T15:40:56;2.38;;;0.90;;
66437;SDS011;54537;47.972;11.662;2022-09-13T15:43:24;3.00;;;0.90;;
66437;SDS011;54537;47.972;11.662;2022-09-13T15:45:50;2.35;;;0.80;;
66437;SDS011;54537;47.972;11.662;2022-09-13T15:48:19;2.17;;;0.90;;
66437;SDS011;54537;47.972;11.662;2022-09-13T15:50:49;3.30;;;1.00;;
66437;SDS011;54537;47.972;11.662;2022-09-13T15:53:27;1.25;;;0.90;;
66437;SDS011;54537;47.972;11.662;2022-09-13T15:55:53;2.07;;;0.93;;
66437;SDS011;54537;47.972;11.662;2022-09-13T15:58:20;3.00;;;1.00;;
66437;SDS011;54537;47.972;11.662;2022-09-13T16:00:47;2.50;;;0.95;;
66437;SDS011;54537;47.972;11.662;2022-09-13T16:03:14;2.37;;;0.90;;
66437;SDS011;54537;47.972;11.662;2022-09-13T16:05:40;2.15;;;1.00;;
66437;SDS011;54537;47.972;11.662;2022-09-13T16:08:07;3.17;;;1.05;;
66437;SDS011;54537;47.972;11.662;2022-09-13T16:10:34;2.65;;;1.10;;
66437;SDS011;54537;47.972;11.662;2022-09-13T16:13:01;2.38;;;1.10;;
66437;SDS011;54537;47.972;11.662;2022-09-13T16:15:27;4.07;;;1.10;;
66437;SDS011;54537;47.972;11.662;2022-09-13T16:17:55;5.55;;;1.25;;
66437;SDS011;54537;47.972;11.662;2022-09-13T16:20:21;3.75;;;1.10;;
66437;SDS011;54537;47.972;11.662;2022-09-13T16:22:47;1.83;;;1.05;;
66437;SDS011;54537;47.972;11.662;2022-09-13T16:25:14;4.17;;;0.97;;
66437;SDS011;54537;47.972;11.662;2022-09-13T16:27:41;2.92;;;1.00;;
66437;SDS011;54537;47.972;11.662;2022-09-13T16:30:09;4.30;;;1.20;;
66437;SDS011;54537;47.972;11.662;2022-09-13T16:32:36;2.88;;;1.10;;
66437;SDS011;54537;47.972;11.662;2022-09-13T16:35:04;2.45;;;1.08;;
66437;SDS011;54537;47.972;11.662;2022-09-13T16:37:30;2.80;;;1.00;;
66437;SDS011;54537;47.972;11.662;2022-09-13T16:39:57;3.22;;;1.08;;
66437;SDS011;54537;47.972;11.662;2022-09-13T16:42:23;2.78;;;1.10;;
66437;SDS011;54537;47.972;11.662;2022-09-13T16:44:50;2.65;;;0.90;;
66437;SDS011;54537;47.972;11.662;2022-09-13T16:47:16;2.80;;;1.00;;
66437;SDS011;54537;47.972;11.662;2022-09-13T16:49:42;2.20;;;1.10;;
66437;SDS011;54537;47.972;11.662;2022-09-13T16:52:10;3.22;;;1.10;;
66437;SDS011;54537;47.972;11.662;2022-09-13T16:54:36;3.33;;;1.20;;
66437;SDS011;54537;47.972;11.662;2022-09-13T16:57:03;2.03;;;1.00;;
66437;SDS011;54537;47.972;11.662;2022-09-13T16:59:30;3.45;;;1.25;;
66437;SDS011;54537;47.972;11.662;2022-09-13T17:01:56;4.38;;;1.10;;
66437;SDS011;54537;47.972;11.662;2022-09-13T17:04:23;3.47;;;1.30;;
66437;SDS011;54537;47.972;11.662;2022-09-13T17:06:49;3.42;;;1.40;;
66437;SDS011;54537;47.972;11.662;2022-09-13T17:09:17;3.88;;;1.40;;
66437;SDS011;54537;47.972;11.662;2022-09-13T17:11:45;3.22;;;1.20;;
66437;SDS011;54537;47.972;11.662;2022-09-13T17:14:12;2.15;;;1.00;;
66437;SDS011;54537;47.972;11.662;2022-09-13T17:16:42;4.45;;;1.23;;
66437;SDS011;54537;47.972;11.662;2022-09-13T17:19:11;3.17;;;1.37;;
66437;SDS011;54537;47.972;11.662;2022-09-13T17:21:38;2.20;;;1.47;;
66437;SDS011;54537;47.972;11.662;2022-09-13T17:24:04;3.33;;;1.35;;
66437;SDS011;54537;47.972;11.662;2022-09-13T17:26:32;2.35;;;1.27;;
66437;SDS011;54537;47.972;11.662;2022-09-13T17:28:58;4.35;;;1.30;;
66437;SDS011;54537;47.972;11.662;2022-09-13T17:31:25;3.22;;;1.50;;
66437;SDS011;54537;47.972;11.662;2022-09-13T17:33:51;4.63;;;1.60;;
66437;SDS011;54537;47.972;11.662;2022-09-13T17:36:19;4.97;;;1.60;;
66437;SDS011;54537;47.972;11.662;2022-09-13T17:38:45;4.50;;;1.60;;
66437;SDS011;54537;47.972;11.662;2022-09-13T17:41:12;5.03;;;1.73;;
66437;SDS011;54537;47.972;11.662;2022-09-13T17:43:41;5.07;;;2.20;;
66437;SDS011;54537;47.972;11.662;2022-09-13T17:46:10;3.53;;;1.55;;
66437;SDS011;54537;47.972;11.662;2022-09-13T17:48:37;5.53;;;1.30;;
66437;SDS011;54537;47.972;11.662;2022-09-13T17:51:04;3.72;;;1.30;;
66437;SDS011;54537;47.972;11.662;2022-09-13T17:53:32;3.83;;;1.60;;
66437;SDS011;54537;47.972;11.662;2022-09-13T17:56:01;2.15;;;1.30;;
66437;SDS011;54537;47.972;11.662;2022-09-13T17:58:27;2.83;;;1.53;;
66437;SDS011;54537;47.972;11.662;2022-09-13T18:01:02;4.18;;;1.50;;
66437;SDS011;54537;47.972;11.662;2022-09-13T18:03:28;4.25;;;1.70;;
66437;SDS011;54537;47.972;11.662;2022-09-13T18:05:56;3.13;;;1.55;;
66437;SDS011;54537;47.972;11.662;2022-09-13T18:08:23;3.80;;;1.80;;
66437;SDS011;54537;47.972;11.662;2022-09-13T18:10:49;5.57;;;2.00;;
66437;SDS011;54537;47.972;11.662;2022-09-13T18:13:16;4.47;;;1.75;;
66437;SDS011;54537;47.972;11.662;2022-09-13T18:15:42;5.60;;;1.90;;
66437;SDS011;54537;47.972;11.662;2022-09-13T18:18:12;3.70;;;1.80;;
66437;SDS011;54537;47.972;11.662;2022-09-13T18:20:38;3.22;;;1.70;;
66437;SDS011;54537;47.972;11.662;2022-09-13T18:23:10;4.65;;;2.00;;
66437;SDS011;54537;47.972;11.662;2022-09-13T18:25:36;3.92;;;1.90;;
66437;SDS011;54537;47.972;11.662;2022-09-13T18:28:03;5.20;;;1.90;;
66437;SDS011;54537;47.972;11.662;2022-09-13T18:30:29;3.92;;;1.80;;
66437;SDS011;54537;47.972;11.662;2022-09-13T18:32:55;6.73;;;2.10;;
66437;SDS011;54537;47.972;11.662;2022-09-13T18:35:23;3.72;;;2.08;;
66437;SDS011;54537;47.972;11.662;2022-09-13T18:37:50;5.30;;;2.10;;
66437;SDS011;54537;47.972;11.662;2022-09-13T18:40:16;4.95;;;2.10;;
66437;SDS011;54537;47.972;11.662;2022-09-13T18:42:42;4.88;;;2.33;;
66437;SDS011;54537;47.972;11.662;2022-09-13T18:45:09;4.10;;;2.20;;
66437;SDS011;54537;47.972;11.662;2022-09-13T18:47:35;4.03;;;2.08;;
66437;SDS011;54537;47.972;11.662;2022-09-13T18:50:02;4.70;;;2.00;;
66437;SDS011;54537;47.972;11.662;2022-09-13T18:52:30;5.25;;;1.88;;
66437;SDS011;54537;47.972;11.662;2022-09-13T18:54:56;6.60;;;2.13;;
66437;SDS011;54537;47.972;11.662;2022-09-13T18:57:22;5.55;;;2.10;;
66437;SDS011;54537;47.972;11.662;2022-09-13T18:59:48;7.22;;;2.63;;
66437;SDS011;54537;47.972;11.662;2022-09-13T19:02:15;7.72;;;2.50;;
66437;SDS011;54537;47.972;11.662;2022-09-13T19:04:41;6.03;;;2.30;;
66437;SDS011;54537;47.972;11.662;2022-09-13T19:07:07;8.10;;;2.70;;
66437;SDS011;54537;47.972;11.662;2022-09-13T19:09:35;9.88;;;3.65;;
66437;SDS011;54537;47.972;11.662;2022-09-13T19:12:01;8.15;;;3.10;;
66437;SDS011;54537;47.972;11.662;2022-09-13T19:14:28;5.15;;;2.53;;
66437;SDS011;54537;47.972;11.662;2022-09-13T19:16:57;6.07;;;2.30;;
66437;SDS011;54537;47.972;11.662;2022-09-13T19:19:25;3.78;;;2.00;;
66437;SDS011;54537;47.972;11.662;2022-09-13T19:21:51;4.53;;;2.00;;
66437;SDS011;54537;47.972;11.662;2022-09-13T19:24:17;3.95;;;1.90;;
66437;SDS011;54537;47.972;11.662;2022-09-13T19:26:45;4.35;;;2.03;;
66437;SDS011;54537;47.972;11.662;2022-09-13T19:29:13;5.53;;;1.92;;
66437;SDS011;54537;47.972;11.662;2022-09-13T19:31:41;4.50;;;1.83;;
66437;SDS011;54537;47.972;11.662;2022-09-13T19:34:07;6.03;;;2.00;;
66437;SDS011;54537;47.972;11.662;2022-09-13T19:36:35;2.72;;;2.05;;
66437;SDS011;54537;47.972;11.662;2022-09-13T19:39:02;4.18;;;2.10;;
66437;SDS011;54537;47.972;11.662;2022-09-13T19:41:29;3.75;;;2.00;;
66437;SDS011;54537;47.972;11.662;2022-09-13T19:43:57;5.05;;;2.47;;
66437;SDS011;54537;47.972;11.662;2022-09-13T19:46:25;5.13;;;2.70;;
66437;SDS011;54537;47.972;11.662;2022-09-13T19:48:53;4.55;;;2.80;;
66437;SDS011;54537;47.972;11.662;2022-09-13T19:51:21;6.50;;;3.20;;
66437;SDS011;54537;47.972;11.662;2022-09-13T19:53:49;5.25;;;2.90;;
66437;SDS011;54537;47.972;11.662;2022-09-13T19:56:16;6.77;;;3.20;;
66437;SDS011;54537;47.972;11.662;2022-09-13T19:58:43;5.38;;;2.90;;
66437;SDS011;54537;47.972;11.662;2022-09-13T20:01:11;5.15;;;2.90;;
66437;SDS011;54537;47.972;11.662;2022-09-13T20:03:39;5.20;;;3.20;;
66437;SDS011;54537;47.972;11.662;2022-09-13T20:06:06;5.13;;;3.10;;
66437;SDS011;54537;47.972;11.662;2022-09-13T20:08:33;8.50;;;3.00;;
66437;SDS011;54537;47.972;11.662;2022-09-13T20:11:02;5.07;;;3.00;;
66437;SDS011;54537;47.972;11.662;2022-09-13T20:13:28;5.22;;;2.55;;
66437;SDS011;54537;47.972;11.662;2022-09-13T20:15:55;5.03;;;2.33;;
66437;SDS011;54537;47.972;11.662;2022-09-13T20:18:22;6.70;;;2.30;;
66437;SDS011;54537;47.972;11.662;2022-09-13T20:20:49;5.53;;;2.45;;
66437;SDS011;54537;47.972;11.662;2022-09-13T20:23:20;6.65;;;2.50;;
66437;SDS011;54537;47.972;11.662;2022-09-13T20:25:47;6.18;;;2.40;;
66437;SDS011;54537;47.972;11.662;2022-09-13T20:28:14;4.22;;;2.30;;
66437;SDS011;54537;47.972;11.662;2022-09-13T20:30:40;5.68;;;2.55;;
66437;SDS011;54537;47.972;11.662;2022-09-13T20:33:07;7.00;;;2.70;;
66437;SDS011;54537;47.972;11.662;2022-09-13T20:35:36;7.10;;;2.50;;
66437;SDS011;54537;47.972;11.662;2022-09-13T20:38:03;5.63;;;2.70;;
66437;SDS011;54537;47.972;11.662;2022-09-13T20:40:29;7.07;;;3.13;;
66437;SDS011;54537;47.972;11.662;2022-09-13T20:42:55;7.00;;;3.00;;
66437;SDS011;54537;47.972;11.662;2022-09-13T20:45:22;7.53;;;3.28;;
66437;SDS011;54537;47.972;11.662;2022-09-13T20:47:48;8.43;;;3.25;;
66437;SDS011;54537;47.972;11.662;2022-09-13T20:50:14;4.90;;;2.92;;
66437;SDS011;54537;47.972;11.662;2022-09-13T20:52:43;5.93;;;3.05;;
66437;SDS011;54537;47.972;11.662;2022-09-13T20:55:10;5.80;;;2.72;;
66437;SDS011;54537;47.972;11.662;2022-09-13T20:57:36;6.93;;;3.10;;
66437;SDS011;54537;47.972;11.662;2022-09-13T21:00:02;7.13;;;3.20;;
66437;SDS011;54537;47.972;11.662;2022-09-13T21:02:29;4.93;;;2.90;;
66437;SDS011;54537;47.972;11.662;2022-09-13T21:04:55;6.60;;;3.17;;
66437;SDS011;54537;47.972;11.662;2022-09-13T21:07:22;7.55;;;3.00;;
66437;SDS011;54537;47.972;11.662;2022-09-13T21:10:08;5.07;;;2.60;;
66437;SDS011;54537;47.972;11.662;2022-09-13T21:12:34;5.32;;;2.72;;
66437;SDS011;54537;47.972;11.662;2022-09-13T21:15:01;5.82;;;2.55;;
66437;SDS011;54537;47.972;11.662;2022-09-13T21:17:27;4.47;;;2.45;;
66437;SDS011;54537;47.972;11.662;2022-09-13T21:19:53;4.93;;;3.15;;
66437;SDS011;54537;47.972;11.662;2022-09-13T21:22:20;6.45;;;2.75;;
66437;SDS011;54537;47.972;11.662;2022-09-13T21:24:46;6.53;;;3.05;;
66437;SDS011;54537;47.972;11.662;2022-09-13T21:27:13;4.75;;;2.47;;
66437;SDS011;54537;47.972;11.662;2022-09-13T21:29:40;4.30;;;2.63;;
66437;SDS011;54537;47.972;11.662;2022-09-13T21:32:06;8.23;;;2.78;;
66437;SDS011;54537;47.972;11.662;2022-09-13T21:34:32;4.85;;;2.63;;
66437;SDS011;54537;47.972;11.662;2022-09-13T21:36:59;4.93;;;2.78;;
66437;SDS011;54537;47.972;11.662;2022-09-13T21:39:25;4.43;;;2.45;;
66437;SDS011;54537;47.972;11.662;2022-09-13T21:41:53;5.47;;;2.60;;
66437;SDS011;54537;47.972;11.662;2022-09-13T21:44:21;6.03;;;2.80;;
66437;SDS011;54537;47.972;11.662;2022-09-13T21:46:48;7.25;;;3.53;;
66437;SDS011;54537;47.972;11.662;2022-09-13T21:49:15;4.80;;;2.70;;
66437;SDS011;54537;47.972;11.662;2022-09-13T21:51:42;4.95;;;2.90;;
66437;SDS011;54537;47.972;11.662;2022-09-13T21:54:09;5.25;;;2.63;;
66437;SDS011;54537;47.972;11.662;2022-09-13T21:56:38;5.60;;;2.30;;
66437;SDS011;54537;47.972;11.662;2022-09-13T21:59:06;5.38;;;2.42;;